sensor_id;sensor_type;location;lat;lon;timestamp;pressure;altitude;pressure_sealevel;temperature;humidity
83185;BME280;73080;48.768;11.528;2024-03-23T00:52:32;96423.94;;;10.29;76.05
83185;BME280;73080;48.768;11.528;2024-03-23T00:54:57;96422.94;;;10.35;76.00
83185;BME280;73080;48.768;11.528;2024-03-23T00:57:23;96414.28;;;10.34;75.71
83185;BME280;73080;48.768;11.528;2024-03-23T00:59:48;96404.06;;;10.38;75.87
83185;BME280;73080;48.768;11.528;2024-03-23T01:02:16;96409.06;;;10.39;75.59
83185;BME280;73080;48.768;11.528;2024-03-23T01:04:42;96406.13;;;10.31;75.43
83185;BME280;73080;48.768;11.528;2024-03-23T01:07:08;96404.19;;;10.21;75.80
83185;BME280;73080;48.768;11.528;2024-03-23T01:09:33;96391.59;;;10.18;75.27
83185;BME280;73080;48.768;11.528;2024-03-23T01:11:58;96394.69;;;10.10;75.74
83185;BME280;73080;48.768;11.528;2024-03-23T01:14:24;96387.31;;;10.07;75.68
83185;BME280;73080;48.768;11.528;2024-03-23T01:16:49;96391.44;;;10.35;74.26
83185;BME280;73080;48.768;11.528;2024-03-23T01:19:14;96370.28;;;10.57;73.07
83185;BME280;73080;48.768;11.528;2024-03-23T01:21:40;96370.53;;;10.50;72.90
83185;BME280;73080;48.768;11.528;2024-03-23T01:24:05;96374.41;;;10.37;71.83
83185;BME280;73080;48.768;11.528;2024-03-23T01:26:31;96372.09;;;10.04;71.75
83185;BME280;73080;48.768;11.528;2024-03-23T01:28:56;96366.53;;;9.95;72.10
83185;BME280;73080;48.768;11.528;2024-03-23T01:31:25;96366.50;;;9.90;72.73
83185;BME280;73080;48.768;11.528;2024-03-23T01:33:50;96363.59;;;9.86;72.40
83185;BME280;73080;48.768;11.528;2024-03-23T01:36:16;96361.75;;;9.82;72.91
83185;BME280;73080;48.768;11.528;2024-03-23T01:38:44;96362.16;;;9.69;73.06
83185;BME280;73080;48.768;11.528;2024-03-23T01:41:10;96359.75;;;9.62;73.04
83185;BME280;73080;48.768;11.528;2024-03-23T01:43:35;96357.97;;;9.68;72.48
83185;BME280;73080;48.768;11.528;2024-03-23T01:46:00;96352.63;;;9.57;72.93
83185;BME280;73080;48.768;11.528;2024-03-23T01:48:26;96354.69;;;9.50;72.99
83185;BME280;73080;48.768;11.528;2024-03-23T01:50:51;96350.47;;;9.49;73.04
83185;BME280;73080;48.768;11.528;2024-03-23T01:53:17;96344.91;;;9.41;72.90
83185;BME280;73080;48.768;11.528;2024-03-23T01:55:43;96349.53;;;9.28;73.63
83185;BME280;73080;48.768;11.528;2024-03-23T01:58:09;96349.84;;;9.37;72.91
83185;BME280;73080;48.768;11.528;2024-03-23T02:00:34;96340.41;;;9.31;73.44
83185;BME280;73080;48.768;11.528;2024-03-23T02:03:00;96337.78;;;9.36;72.92
83185;BME280;73080;48.768;11.528;2024-03-23T02:05:25;96336.75;;;9.37;72.97
83185;BME280;73080;48.768;11.528;2024-03-23T02:07:54;96324.94;;;9.34;73.19
83185;BME280;73080;48.768;11.528;2024-03-23T02:10:19;96322.34;;;9.34;73.13
83185;BME280;73080;48.768;11.528;2024-03-23T02:12:45;96319.19;;;9.32;73.05
83185;BME280;73080;48.768;11.528;2024-03-23T02:15:13;96320.19;;;9.26;72.52
83185;BME280;73080;48.768;11.528;2024-03-23T02:17:42;96309.63;;;9.16;72.54
83185;BME280;73080;48.768;11.528;2024-03-23T02:20:07;96301.53;;;9.23;71.66
83185;BME280;73080;48.768;11.528;2024-03-23T02:22:39;96309.69;;;9.26;71.64
83185;BME280;73080;48.768;11.528;2024-03-23T02:25:05;96301.38;;;9.34;71.15
83185;BME280;73080;48.768;11.528;2024-03-23T02:27:32;96295.81;;;9.26;71.50
83185;BME280;73080;48.768;11.528;2024-03-23T02:29:57;96290.28;;;9.22;71.43
83185;BME280;73080;48.768;11.528;2024-03-23T02:32:23;96305.19;;;9.17;71.69
83185;BME280;73080;48.768;11.528;2024-03-23T02:34:51;96292.63;;;9.19;71.32
83185;BME280;73080;48.768;11.528;2024-03-23T02:37:24;96293.47;;;9.29;70.85
83185;BME280;73080;48.768;11.528;2024-03-23T02:39:49;96280.16;;;9.36;70.71
83185;BME280;73080;48.768;11.528;2024-03-23T02:42:15;96278.00;;;9.28;70.53
83185;BME280;73080;48.768;11.528;2024-03-23T02:44:40;96266.47;;;9.24;70.10
83185;BME280;73080;48.768;11.528;2024-03-23T02:47:06;96272.44;;;9.19;69.94
83185;BME280;73080;48.768;11.528;2024-03-23T02:49:31;96269.31;;;9.22;69.31
83185;BME280;73080;48.768;11.528;2024-03-23T02:51:57;96266.50;;;9.29;69.05
83185;BME280;73080;48.768;11.528;2024-03-23T02:54:22;96258.06;;;9.22;68.94
83185;BME280;73080;48.768;11.528;2024-03-23T02:56:48;96263.75;;;9.14;69.55
83185;BME280;73080;48.768;11.528;2024-03-23T02:59:13;96258.25;;;9.15;69.03
83185;BME280;73080;48.768;11.528;2024-03-23T03:01:39;96255.94;;;9.19;68.72
83185;BME280;73080;48.768;11.528;2024-03-23T03:04:04;96258.09;;;9.27;68.36
83185;BME280;73080;48.768;11.528;2024-03-23T03:06:30;96241.06;;;9.24;68.19
83185;BME280;73080;48.768;11.528;2024-03-23T03:08:56;96236.63;;;9.30;67.90
83185;BME280;73080;48.768;11.528;2024-03-23T03:11:21;96238.22;;;9.31;67.33
83185;BME280;73080;48.768;11.528;2024-03-23T03:13:53;96230.13;;;9.32;67.53
83185;BME280;73080;48.768;11.528;2024-03-23T03:16:21;96227.31;;;9.49;66.97
83185;BME280;73080;48.768;11.528;2024-03-23T03:18:47;96224.69;;;9.49;67.31
83185;BME280;73080;48.768;11.528;2024-03-23T03:21:12;96220.28;;;9.55;67.04
83185;BME280;73080;48.768;11.528;2024-03-23T03:23:38;96211.44;;;9.66;66.78
83185;BME280;73080;48.768;11.528;2024-03-23T03:26:06;96209.06;;;9.64;66.22
83185;BME280;73080;48.768;11.528;2024-03-23T03:28:32;96206.81;;;9.88;65.65
83185;BME280;73080;48.768;11.528;2024-03-23T03:31:01;96220.91;;;9.77;66.87
83185;BME280;73080;48.768;11.528;2024-03-23T03:33:29;96218.78;;;9.69;67.67
83185;BME280;73080;48.768;11.528;2024-03-23T03:35:55;96212.31;;;9.82;67.16
83185;BME280;73080;48.768;11.528;2024-03-23T03:38:21;96211.03;;;10.00;66.56
83185;BME280;73080;48.768;11.528;2024-03-23T03:40:46;96207.66;;;10.04;67.29
83185;BME280;73080;48.768;11.528;2024-03-23T03:43:11;96195.25;;;9.84;68.75
83185;BME280;73080;48.768;11.528;2024-03-23T03:45:37;96192.47;;;10.01;67.46
83185;BME280;73080;48.768;11.528;2024-03-23T03:48:03;96178.47;;;9.85;67.45
83185;BME280;73080;48.768;11.528;2024-03-23T03:50:28;96178.78;;;9.89;67.19
83185;BME280;73080;48.768;11.528;2024-03-23T03:52:54;96180.59;;;9.83;66.67
83185;BME280;73080;48.768;11.528;2024-03-23T03:55:19;96175.03;;;9.75;66.57
83185;BME280;73080;48.768;11.528;2024-03-23T03:57:44;96176.59;;;9.66;66.63
83185;BME280;73080;48.768;11.528;2024-03-23T04:00:10;96174.50;;;9.68;66.52
83185;BME280;73080;48.768;11.528;2024-03-23T04:02:39;96174.50;;;9.68;67.01
83185;BME280;73080;48.768;11.528;2024-03-23T04:05:05;96167.97;;;9.75;66.54
83185;BME280;73080;48.768;11.528;2024-03-23T04:07:34;96168.19;;;9.69;67.50
83185;BME280;73080;48.768;11.528;2024-03-23T04:09:59;96167.34;;;9.53;67.27
83185;BME280;73080;48.768;11.528;2024-03-23T04:12:25;96154.78;;;9.55;66.71
83185;BME280;73080;48.768;11.528;2024-03-23T04:14:50;96151.88;;;9.51;66.65
83185;BME280;73080;48.768;11.528;2024-03-23T04:17:16;96141.94;;;9.53;66.88
83185;BME280;73080;48.768;11.528;2024-03-23T04:19:41;96133.56;;;9.56;66.27
83185;BME280;73080;48.768;11.528;2024-03-23T04:22:07;96130.16;;;9.61;66.48
83185;BME280;73080;48.768;11.528;2024-03-23T04:24:32;96130.44;;;9.59;66.78
83185;BME280;73080;48.768;11.528;2024-03-23T04:27:01;96132.03;;;9.71;66.70
83185;BME280;73080;48.768;11.528;2024-03-23T04:29:26;96144.59;;;9.63;67.31
83185;BME280;73080;48.768;11.528;2024-03-23T04:31:52;96132.03;;;9.66;67.86
83185;BME280;73080;48.768;11.528;2024-03-23T04:34:17;96128.41;;;9.82;67.33
83185;BME280;73080;48.768;11.528;2024-03-23T04:36:42;96139.94;;;9.81;67.93
83185;BME280;73080;48.768;11.528;2024-03-23T04:39:08;96139.13;;;9.75;69.38
83185;BME280;73080;48.768;11.528;2024-03-23T04:41:33;96126.97;;;9.49;70.28
83185;BME280;73080;48.768;11.528;2024-03-23T04:43:59;96134.56;;;9.45;70.46
83185;BME280;73080;48.768;11.528;2024-03-23T04:46:24;96120.47;;;9.61;69.95
83185;BME280;73080;48.768;11.528;2024-03-23T04:48:49;96122.06;;;9.62;69.88
83185;BME280;73080;48.768;11.528;2024-03-23T04:51:24;96128.09;;;9.68;69.78
83185;BME280;73080;48.768;11.528;2024-03-23T04:53:52;96122.84;;;9.68;70.04
83185;BME280;73080;48.768;11.528;2024-03-23T04:56:18;96110.50;;;9.63;69.08
83185;BME280;73080;48.768;11.528;2024-03-23T04:58:43;96116.03;;;9.62;69.75
83185;BME280;73080;48.768;11.528;2024-03-23T05:01:09;96117.88;;;9.67;69.86
83185;BME280;73080;48.768;11.528;2024-03-23T05:03:34;96109.25;;;9.76;68.65
83185;BME280;73080;48.768;11.528;2024-03-23T05:06:00;96104.00;;;9.76;69.17
83185;BME280;73080;48.768;11.528;2024-03-23T05:08:25;96100.06;;;9.79;68.64
83185;BME280;73080;48.768;11.528;2024-03-23T05:10:50;96100.31;;;9.72;69.00
83185;BME280;73080;48.768;11.528;2024-03-23T05:13:16;96099.53;;;9.67;69.21
83185;BME280;73080;48.768;11.528;2024-03-23T05:15:41;96098.22;;;9.69;69.84
83185;BME280;73080;48.768;11.528;2024-03-23T05:18:06;96088.81;;;9.78;69.64
83185;BME280;73080;48.768;11.528;2024-03-23T05:20:32;96086.72;;;9.80;69.20
83185;BME280;73080;48.768;11.528;2024-03-23T05:22:58;96090.41;;;9.84;69.50
83185;BME280;73080;48.768;11.528;2024-03-23T05:25:23;96091.97;;;9.90;68.57
83185;BME280;73080;48.768;11.528;2024-03-23T05:27:49;96079.63;;;9.86;69.26
83185;BME280;73080;48.768;11.528;2024-03-23T05:30:14;96081.72;;;9.79;69.79
83185;BME280;73080;48.768;11.528;2024-03-23T05:32:40;96073.84;;;9.79;69.87
83185;BME280;73080;48.768;11.528;2024-03-23T05:35:09;96079.13;;;9.74;69.76
83185;BME280;73080;48.768;11.528;2024-03-23T05:37:34;96083.03;;;9.66;69.71
83185;BME280;73080;48.768;11.528;2024-03-23T05:40:00;96076.22;;;9.70;70.17
83185;BME280;73080;48.768;11.528;2024-03-23T05:42:26;96067.84;;;9.73;69.71
83185;BME280;73080;48.768;11.528;2024-03-23T05:44:54;96060.22;;;9.77;69.66
83185;BME280;73080;48.768;11.528;2024-03-23T05:47:19;96053.97;;;9.83;68.95
83185;BME280;73080;48.768;11.528;2024-03-23T05:49:45;96052.34;;;9.72;69.54
83185;BME280;73080;48.768;11.528;2024-03-23T05:52:11;96045.28;;;9.72;69.38
83185;BME280;73080;48.768;11.528;2024-03-23T05:54:39;96030.09;;;9.74;68.74
83185;BME280;73080;48.768;11.528;2024-03-23T05:57:09;96017.78;;;9.80;68.43
83185;BME280;73080;48.768;11.528;2024-03-23T05:59:34;96007.56;;;9.88;68.06
83185;BME280;73080;48.768;11.528;2024-03-23T06:02:00;96006.53;;;9.95;67.99
83185;BME280;73080;48.768;11.528;2024-03-23T06:04:25;96011.38;;;11.03;65.84
83185;BME280;73080;48.768;11.528;2024-03-23T06:06:51;96015.25;;;12.15;60.48
83185;BME280;73080;48.768;11.528;2024-03-23T06:09:17;96006.25;;;12.50;59.47
83185;BME280;73080;48.768;11.528;2024-03-23T06:11:42;95993.75;;;13.08;57.49
83185;BME280;73080;48.768;11.528;2024-03-23T06:14:08;95971.53;;;13.76;55.46
83185;BME280;73080;48.768;11.528;2024-03-23T06:16:33;95975.53;;;14.85;51.94
83185;BME280;73080;48.768;11.528;2024-03-23T06:18:59;95982.56;;;15.31;50.75
83185;BME280;73080;48.768;11.528;2024-03-23T06:21:24;95968.75;;;15.06;51.24
83185;BME280;73080;48.768;11.528;2024-03-23T06:23:52;95980.09;;;14.66;52.32
83185;BME280;73080;48.768;11.528;2024-03-23T06:26:19;95978.03;;;15.45;50.68
83185;BME280;73080;48.768;11.528;2024-03-23T06:28:45;95981.94;;;15.48;50.09
83185;BME280;73080;48.768;11.528;2024-03-23T06:31:11;95978.38;;;14.89;50.76
83185;BME280;73080;48.768;11.528;2024-03-23T06:33:36;95984.28;;;13.88;55.31
83185;BME280;73080;48.768;11.528;2024-03-23T06:36:03;95985.03;;;14.07;53.98
83185;BME280;73080;48.768;11.528;2024-03-23T06:38:29;95981.59;;;13.12;57.46
83185;BME280;73080;48.768;11.528;2024-03-23T06:40:54;95978.84;;;13.46;56.94
83185;BME280;73080;48.768;11.528;2024-03-23T06:43:20;95977.41;;;13.11;59.25
83185;BME280;73080;48.768;11.528;2024-03-23T06:45:52;95972.66;;;12.65;61.43
83185;BME280;73080;48.768;11.528;2024-03-23T06:48:18;95972.19;;;12.34;61.67
83185;BME280;73080;48.768;11.528;2024-03-23T06:50:43;95965.34;;;12.33;60.44
83185;BME280;73080;48.768;11.528;2024-03-23T06:53:09;95963.22;;;12.35;60.15
83185;BME280;73080;48.768;11.528;2024-03-23T06:55:37;95961.19;;;12.27;60.85
83185;BME280;73080;48.768;11.528;2024-03-23T06:58:03;95953.91;;;12.19;60.80
83185;BME280;73080;48.768;11.528;2024-03-23T07:00:28;95956.00;;;12.17;60.55
83185;BME280;73080;48.768;11.528;2024-03-23T07:02:54;95959.78;;;12.06;61.24
83185;BME280;73080;48.768;11.528;2024-03-23T07:05:19;95953.16;;;12.14;61.47
83185;BME280;73080;48.768;11.528;2024-03-23T07:07:44;95957.97;;;12.01;62.44
83185;BME280;73080;48.768;11.528;2024-03-23T07:10:10;95977.59;;;11.85;63.84
83185;BME280;73080;48.768;11.528;2024-03-23T07:12:35;96020.72;;;11.79;65.59
83185;BME280;73080;48.768;11.528;2024-03-23T07:15:01;96032.06;;;11.69;66.54
83185;BME280;73080;48.768;11.528;2024-03-23T07:17:26;96031.16;;;11.50;67.73
83185;BME280;73080;48.768;11.528;2024-03-23T07:19:52;96044.38;;;11.24;68.53
83185;BME280;73080;48.768;11.528;2024-03-23T07:22:17;96062.84;;;10.99;68.38
83185;BME280;73080;48.768;11.528;2024-03-23T07:24:44;96079.97;;;10.86;69.15
83185;BME280;73080;48.768;11.528;2024-03-23T07:27:09;96093.88;;;10.77;70.03
83185;BME280;73080;48.768;11.528;2024-03-23T07:29:35;96093.63;;;10.48;71.80
83185;BME280;73080;48.768;11.528;2024-03-23T07:32:01;96108.34;;;10.49;71.79
83185;BME280;73080;48.768;11.528;2024-03-23T07:34:26;96133.00;;;10.37;73.58
83185;BME280;73080;48.768;11.528;2024-03-23T07:36:51;96136.06;;;10.14;74.17
83185;BME280;73080;48.768;11.528;2024-03-23T07:39:17;96143.41;;;10.07;74.62
83185;BME280;73080;48.768;11.528;2024-03-23T07:41:46;96159.94;;;10.12;74.09
83185;BME280;73080;48.768;11.528;2024-03-23T07:44:14;96174.34;;;10.05;74.63
83185;BME280;73080;48.768;11.528;2024-03-23T07:46:39;96174.56;;;9.93;75.82
83185;BME280;73080;48.768;11.528;2024-03-23T07:49:05;96164.03;;;9.78;76.32
83185;BME280;73080;48.768;11.528;2024-03-23T07:51:30;96163.44;;;9.60;76.35
83185;BME280;73080;48.768;11.528;2024-03-23T07:53:59;96166.72;;;9.35;76.10
83185;BME280;73080;48.768;11.528;2024-03-23T07:56:24;96166.25;;;9.39;76.64
83185;BME280;73080;48.768;11.528;2024-03-23T07:58:50;96172.00;;;9.41;77.51
83185;BME280;73080;48.768;11.528;2024-03-23T08:01:16;96179.25;;;9.28;77.96
83185;BME280;73080;48.768;11.528;2024-03-23T08:03:44;96176.63;;;9.28;78.01
83185;BME280;73080;48.768;11.528;2024-03-23T08:06:10;96169.00;;;9.22;78.23
83185;BME280;73080;48.768;11.528;2024-03-23T08:08:35;96163.47;;;9.13;79.39
83185;BME280;73080;48.768;11.528;2024-03-23T08:11:01;96174.22;;;9.17;78.00
83185;BME280;73080;48.768;11.528;2024-03-23T08:13:27;96186.28;;;9.23;78.42
83185;BME280;73080;48.768;11.528;2024-03-23T08:15:57;96194.34;;;9.11;79.59
83185;BME280;73080;48.768;11.528;2024-03-23T08:18:22;96188.81;;;9.07;78.63
83185;BME280;73080;48.768;11.528;2024-03-23T08:21:04;96195.13;;;9.12;79.76
83185;BME280;73080;48.768;11.528;2024-03-23T08:23:32;96197.59;;;9.23;79.43
83185;BME280;73080;48.768;11.528;2024-03-23T08:25:58;96197.34;;;9.30;79.00
83185;BME280;73080;48.768;11.528;2024-03-23T08:28:25;96201.91;;;9.07;79.58
83185;BME280;73080;48.768;11.528;2024-03-23T08:30:50;96197.81;;;9.22;79.68
83185;BME280;73080;48.768;11.528;2024-03-23T08:33:16;96211.44;;;9.19;79.19
83185;BME280;73080;48.768;11.528;2024-03-23T08:35:42;96200.78;;;9.30;77.92
83185;BME280;73080;48.768;11.528;2024-03-23T08:38:07;96203.72;;;9.44;77.69
83185;BME280;73080;48.768;11.528;2024-03-23T08:40:33;96194.22;;;9.33;77.32
83185;BME280;73080;48.768;11.528;2024-03-23T08:43:01;96208.19;;;9.49;77.08
83185;BME280;73080;48.768;11.528;2024-03-23T08:45:29;96204.28;;;9.51;77.08
83185;BME280;73080;48.768;11.528;2024-03-23T08:47:55;96211.81;;;9.43;76.27
83185;BME280;73080;48.768;11.528;2024-03-23T08:50:20;96219.06;;;9.68;75.65
83185;BME280;73080;48.768;11.528;2024-03-23T08:52:50;96232.19;;;9.73;75.54
83185;BME280;73080;48.768;11.528;2024-03-23T08:55:16;96242.72;;;9.83;75.04
83185;BME280;73080;48.768;11.528;2024-03-23T08:57:41;96254.09;;;10.04;74.41
83185;BME280;73080;48.768;11.528;2024-03-23T09:00:07;96260.38;;;10.03;73.95
83185;BME280;73080;48.768;11.528;2024-03-23T09:02:32;96262.41;;;9.90;73.72
83185;BME280;73080;48.768;11.528;2024-03-23T09:04:58;96262.94;;;9.93;72.92
83185;BME280;73080;48.768;11.528;2024-03-23T09:07:23;96270.41;;;10.16;72.62
83185;BME280;73080;48.768;11.528;2024-03-23T09:09:49;96264.13;;;10.22;72.18
83185;BME280;73080;48.768;11.528;2024-03-23T09:12:14;96250.69;;;10.13;69.96
83185;BME280;73080;48.768;11.528;2024-03-23T09:14:40;96240.72;;;10.10;70.60
83185;BME280;73080;48.768;11.528;2024-03-23T09:17:05;96236.66;;;10.40;70.41
83185;BME280;73080;48.768;11.528;2024-03-23T09:19:33;96247.16;;;10.40;68.23
83185;BME280;73080;48.768;11.528;2024-03-23T09:21:59;96253.22;;;10.56;67.89
83185;BME280;73080;48.768;11.528;2024-03-23T09:24:24;96251.44;;;10.71;68.31
83185;BME280;73080;48.768;11.528;2024-03-23T09:26:53;96257.72;;;10.65;67.15
83185;BME280;73080;48.768;11.528;2024-03-23T09:29:24;96267.91;;;10.57;67.14
83185;BME280;73080;48.768;11.528;2024-03-23T09:31:50;96257.44;;;10.52;66.78
83185;BME280;73080;48.768;11.528;2024-03-23T09:34:15;96272.41;;;10.66;65.77
83185;BME280;73080;48.768;11.528;2024-03-23T09:36:40;96270.25;;;10.48;65.72
83185;BME280;73080;48.768;11.528;2024-03-23T09:39:12;96273.19;;;10.67;65.85
83185;BME280;73080;48.768;11.528;2024-03-23T09:41:37;96284.00;;;10.86;66.29
83185;BME280;73080;48.768;11.528;2024-03-23T09:44:09;96285.84;;;10.80;66.80
83185;BME280;73080;48.768;11.528;2024-03-23T09:46:40;96285.31;;;10.88;66.68
83185;BME280;73080;48.768;11.528;2024-03-23T09:49:09;96282.16;;;10.86;64.90
83185;BME280;73080;48.768;11.528;2024-03-23T09:51:36;96283.50;;;11.04;65.54
83185;BME280;73080;48.768;11.528;2024-03-23T09:54:02;96282.97;;;11.17;64.55
83185;BME280;73080;48.768;11.528;2024-03-23T09:56:27;96302.41;;;11.01;63.19
83185;BME280;73080;48.768;11.528;2024-03-23T09:59:00;96322.88;;;10.89;63.83
83185;BME280;73080;48.768;11.528;2024-03-23T10:01:34;96329.91;;;10.68;62.54
83185;BME280;73080;48.768;11.528;2024-03-23T10:03:59;96335.63;;;10.44;62.53
83185;BME280;73080;48.768;11.528;2024-03-23T10:06:28;96338.06;;;10.77;62.38
83185;BME280;73080;48.768;11.528;2024-03-23T10:08:53;96344.72;;;11.10;61.73
83185;BME280;73080;48.768;11.528;2024-03-23T10:11:19;96342.34;;;11.18;61.72
83185;BME280;73080;48.768;11.528;2024-03-23T10:13:44;96348.09;;;11.05;59.98
83185;BME280;73080;48.768;11.528;2024-03-23T10:16:10;96368.91;;;11.32;60.00
83185;BME280;73080;48.768;11.528;2024-03-23T10:18:39;96367.06;;;11.22;59.69
83185;BME280;73080;48.768;11.528;2024-03-23T10:23:30;96363.59;;;10.96;58.31
83185;BME280;73080;48.768;11.528;2024-03-23T10:26:12;96366.66;;;10.68;57.19
83185;BME280;73080;48.768;11.528;2024-03-23T10:29:00;96377.91;;;10.53;56.36
83185;BME280;73080;48.768;11.528;2024-03-23T10:31:30;96369.13;;;10.32;56.61
83185;BME280;73080;48.768;11.528;2024-03-23T10:33:56;96382.38;;;10.10;57.89
83185;BME280;73080;48.768;11.528;2024-03-23T10:36:23;96377.16;;;10.15;58.47
83185;BME280;73080;48.768;11.528;2024-03-23T10:38:50;96385.63;;;10.23;57.56
83185;BME280;73080;48.768;11.528;2024-03-23T10:41:16;96385.81;;;10.16;58.45
83185;BME280;73080;48.768;11.528;2024-03-23T10:43:45;96385.59;;;9.85;59.28
83185;BME280;73080;48.768;11.528;2024-03-23T10:46:10;96386.44;;;9.91;58.76
83185;BME280;73080;48.768;11.528;2024-03-23T10:48:36;96391.41;;;9.87;58.84
83185;BME280;73080;48.768;11.528;2024-03-23T10:51:01;96387.06;;;9.71;59.59
83185;BME280;73080;48.768;11.528;2024-03-23T10:53:28;96383.59;;;9.60;59.71
83185;BME280;73080;48.768;11.528;2024-03-23T10:55:55;96364.88;;;9.84;58.68
83185;BME280;73080;48.768;11.528;2024-03-23T10:58:30;96358.31;;;9.81;58.75
83185;BME280;73080;48.768;11.528;2024-03-23T11:00:57;96362.56;;;9.93;57.37
83185;BME280;73080;48.768;11.528;2024-03-23T11:03:36;96362.00;;;9.80;58.56
83185;BME280;73080;48.768;11.528;2024-03-23T11:06:03;96367.66;;;10.04;58.71
83185;BME280;73080;48.768;11.528;2024-03-23T11:08:40;96384.06;;;10.27;57.56
83185;BME280;73080;48.768;11.528;2024-03-23T11:11:13;96402.72;;;10.35;58.43
83185;BME280;73080;48.768;11.528;2024-03-23T11:13:38;96429.53;;;10.37;58.56
83185;BME280;73080;48.768;11.528;2024-03-23T11:16:23;96424.69;;;10.66;57.68
83185;BME280;73080;48.768;11.528;2024-03-23T11:18:50;96421.06;;;10.83;57.97
83185;BME280;73080;48.768;11.528;2024-03-23T11:21:54;96426.22;;;10.62;57.93
83185;BME280;73080;48.768;11.528;2024-03-23T11:24:20;96424.16;;;10.69;57.60
83185;BME280;73080;48.768;11.528;2024-03-23T11:26:49;96414.94;;;10.62;56.22
83185;BME280;73080;48.768;11.528;2024-03-23T11:29:17;96427.88;;;10.26;57.53
83185;BME280;73080;48.768;11.528;2024-03-23T11:31:57;96432.63;;;9.65;55.68
83185;BME280;73080;48.768;11.528;2024-03-23T11:34:23;96429.47;;;9.95;55.71
83185;BME280;73080;48.768;11.528;2024-03-23T11:36:49;96437.75;;;9.82;54.65
83185;BME280;73080;48.768;11.528;2024-03-23T11:39:19;96431.72;;;9.81;55.64
83185;BME280;73080;48.768;11.528;2024-03-23T11:41:49;96434.88;;;9.83;55.60
83185;BME280;73080;48.768;11.528;2024-03-23T11:44:19;96452.41;;;9.78;55.56
83185;BME280;73080;48.768;11.528;2024-03-23T11:46:45;96460.00;;;9.74;55.00
83185;BME280;73080;48.768;11.528;2024-03-23T11:49:24;96454.94;;;9.68;54.41
83185;BME280;73080;48.768;11.528;2024-03-23T11:51:52;96466.03;;;9.75;54.45
83185;BME280;73080;48.768;11.528;2024-03-23T11:54:25;96466.75;;;9.70;54.26
83185;BME280;73080;48.768;11.528;2024-03-23T11:59:42;96447.84;;;9.95;53.96
83185;BME280;73080;48.768;11.528;2024-03-23T12:02:12;96429.19;;;9.91;53.47
83185;BME280;73080;48.768;11.528;2024-03-23T12:04:38;96427.81;;;10.21;51.97
83185;BME280;73080;48.768;11.528;2024-03-23T12:07:15;96429.78;;;10.41;52.21
83185;BME280;73080;48.768;11.528;2024-03-23T12:09:41;96439.97;;;10.80;49.99
83185;BME280;73080;48.768;11.528;2024-03-23T12:12:11;96432.31;;;10.73;49.62
83185;BME280;73080;48.768;11.528;2024-03-23T12:14:36;96433.81;;;10.54;49.97
83185;BME280;73080;48.768;11.528;2024-03-23T12:17:21;96435.81;;;10.41;49.55
83185;BME280;73080;48.768;11.528;2024-03-23T12:19:47;96443.97;;;10.03;50.62
83185;BME280;73080;48.768;11.528;2024-03-23T12:22:12;96439.59;;;9.81;50.44
83185;BME280;73080;48.768;11.528;2024-03-23T12:24:37;96427.31;;;9.55;49.88
83185;BME280;73080;48.768;11.528;2024-03-23T12:27:04;96437.09;;;9.97;49.90
83185;BME280;73080;48.768;11.528;2024-03-23T12:29:33;96445.03;;;10.07;49.50
83185;BME280;73080;48.768;11.528;2024-03-23T12:32:00;96431.34;;;10.00;49.16
83185;BME280;73080;48.768;11.528;2024-03-23T12:34:26;96429.22;;;10.34;48.65
83185;BME280;73080;48.768;11.528;2024-03-23T12:36:51;96422.09;;;10.71;48.36
83185;BME280;73080;48.768;11.528;2024-03-23T12:39:17;96426.22;;;10.62;46.57
83185;BME280;73080;48.768;11.528;2024-03-23T12:41:42;96426.22;;;10.62;47.27
83185;BME280;73080;48.768;11.528;2024-03-23T12:44:08;96418.81;;;10.44;46.99
83185;BME280;73080;48.768;11.528;2024-03-23T12:46:33;96410.53;;;10.78;47.17
83185;BME280;73080;48.768;11.528;2024-03-23T12:48:58;96418.44;;;10.83;48.02
83185;BME280;73080;48.768;11.528;2024-03-23T12:51:24;96413.19;;;10.83;47.10
83185;BME280;73080;48.768;11.528;2024-03-23T12:53:50;96420.16;;;10.52;47.64
83185;BME280;73080;48.768;11.528;2024-03-23T12:56:15;96419.13;;;10.63;47.28
83185;BME280;73080;48.768;11.528;2024-03-23T12:58:40;96430.88;;;10.45;47.64
83185;BME280;73080;48.768;11.528;2024-03-23T13:01:06;96429.91;;;10.19;48.18
83185;BME280;73080;48.768;11.528;2024-03-23T13:03:31;96430.56;;;10.41;48.19
83185;BME280;73080;48.768;11.528;2024-03-23T13:05:57;96419.22;;;10.26;46.08
83185;BME280;73080;48.768;11.528;2024-03-23T13:08:22;96422.50;;;10.11;47.28
83185;BME280;73080;48.768;11.528;2024-03-23T13:10:51;96431.41;;;10.10;45.25
83185;BME280;73080;48.768;11.528;2024-03-23T13:13:17;96433.09;;;9.89;46.91
83185;BME280;73080;48.768;11.528;2024-03-23T13:15:42;96435.66;;;10.16;46.25
83185;BME280;73080;48.768;11.528;2024-03-23T13:18:14;96437.31;;;9.90;46.06
83185;BME280;73080;48.768;11.528;2024-03-23T13:20:39;96438.34;;;9.89;46.17
83185;BME280;73080;48.768;11.528;2024-03-23T13:23:05;96446.28;;;9.67;47.82
83185;BME280;73080;48.768;11.528;2024-03-23T13:25:30;96446.31;;;9.40;49.18
83185;BME280;73080;48.768;11.528;2024-03-23T13:27:56;96454.13;;;9.13;50.04
83185;BME280;73080;48.768;11.528;2024-03-23T13:30:21;96466.88;;;8.61;54.86
83185;BME280;73080;48.768;11.528;2024-03-23T13:32:47;96469.44;;;8.22;59.79
83185;BME280;73080;48.768;11.528;2024-03-23T13:35:12;96464.75;;;7.74;60.81
83185;BME280;73080;48.768;11.528;2024-03-23T13:37:37;96456.75;;;7.80;60.16
83185;BME280;73080;48.768;11.528;2024-03-23T13:40:03;96464.06;;;7.78;60.18
83185;BME280;73080;48.768;11.528;2024-03-23T13:42:29;96452.97;;;7.71;60.14
83185;BME280;73080;48.768;11.528;2024-03-23T13:44:55;96462.78;;;7.81;60.83
83185;BME280;73080;48.768;11.528;2024-03-23T13:47:21;96461.09;;;7.58;61.29
83185;BME280;73080;48.768;11.528;2024-03-23T13:49:46;96459.19;;;7.53;61.32